aviador You're here:

EPBY Decoded Metar

BYDGOSZCZ in POLAND
Report Time2017-11-25 03:30:00
UTC Time2017-11-25 03:48:47
Flight Rules vfr VFR
WindVRB at 02 kt
Visibility9999 m
Phenomena:N/A
Clouds:Few 010 Hf
Expected CloudBase > 400 ft AGL from Temp-Dew spread
CeilingNone
Temp05°C (ISA -10)
Dew Point04°C (93% RH)
AAT3.0°C
QNH1012 hPa
Density Alt-774 ft
Elevation233 ft
Report Wrong Elevation
Raw Report
METAR EPBY 250330Z VRB02KT 9999 FEW010 05/04 Q1012 =

Extra information for EPBY:More info

Metar Taf Metar & Taf Last 4 Metars F.Rules Stats Wind Profile Meteogram Temp Stats Airport Information Weather charts Add Link Nearby VenuesMetar ALERT Operation Metar Decoded Social comments